JAL2482 RJFK-RJOO
Flight info
| Callsign | JAL2482 |
|---|---|
| Flight time | N/A |
| Altitude | 33000 |
| Route | MIDAI M750 MADOG Y753 IZUMI |
| Aircraft | E190/M-SDE3GILORVW/S |
Departure
| Time | 2026-04-30 14:38 |
|---|---|
| Airport | Kagoshima Airport (RJFK) |
Arrival
| Time | N/A |
|---|---|
| Airport | Osaka Itami International Airport (RJOO) |
| Time | Latitude | Longitude | Altitude | Speed | Heading |
|---|---|---|---|---|---|
| 2026-04-30 14:20 | 31.80318 | 130.71530 | 893 ft | 0 kts | 240° |
| 2026-04-30 14:30 | 31.80348 | 130.71591 | 893 ft | 3 kts | 240° |
| 2026-04-30 14:31 | 31.80381 | 130.71639 | 896 ft | 4 kts | 212° |
| 2026-04-30 14:31 | 31.80396 | 130.71648 | 893 ft | 0 kts | 199° |
| 2026-04-30 14:33 | 31.80394 | 130.71648 | 893 ft | 1 kts | 199° |
| 2026-04-30 14:33 | 31.80377 | 130.71657 | 891 ft | 5 kts | 136° |
| 2026-04-30 14:34 | 31.80335 | 130.71712 | 892 ft | 13 kts | 143° |
| 2026-04-30 14:34 | 31.80242 | 130.71777 | 891 ft | 18 kts | 150° |
| 2026-04-30 14:34 | 31.80127 | 130.71853 | 888 ft | 20 kts | 152° |
| 2026-04-30 14:34 | 31.80000 | 130.71940 | 886 ft | 22 kts | 147° |
| 2026-04-30 14:35 | 31.79756 | 130.72107 | 881 ft | 26 kts | 150° |
| 2026-04-30 14:35 | 31.79536 | 130.72258 | 876 ft | 29 kts | 149° |
| 2026-04-30 14:35 | 31.79363 | 130.72379 | 873 ft | 29 kts | 147° |
| 2026-04-30 14:36 | 31.79211 | 130.72478 | 870 ft | 19 kts | 152° |
| 2026-04-30 14:36 | 31.79123 | 130.72583 | 868 ft | 18 kts | 91° |
| 2026-04-30 14:36 | 31.79130 | 130.72611 | 868 ft | 2 kts | 68° |
| 2026-04-30 14:36 | 31.79143 | 130.72643 | 867 ft | 7 kts | 63° |
| 2026-04-30 14:37 | 31.79191 | 130.72690 | 868 ft | 11 kts | 13° |
| 2026-04-30 14:37 | 31.79272 | 130.72654 | 869 ft | 24 kts | 330° |
| 2026-04-30 14:37 | 31.79633 | 130.72408 | 877 ft | 99 kts | 329° |
| 2026-04-30 14:37 | 31.80443 | 130.71854 | 935 ft | 163 kts | 328° |
| 2026-04-30 14:38 | 31.81468 | 130.71192 | 1693 ft | 183 kts | 328° |
| 2026-04-30 14:38 | 31.82662 | 130.70354 | 1988 ft | 201 kts | 325° |
| 2026-04-30 14:38 | 31.84076 | 130.69682 | 2091 ft | 243 kts | 353° |
| 2026-04-30 14:38 | 31.85685 | 130.70099 | 3049 ft | 238 kts | 28° |
| 2026-04-30 14:39 | 31.86805 | 130.71537 | 3903 ft | 248 kts | 63° |
| 2026-04-30 14:39 | 31.87119 | 130.73598 | 4385 ft | 269 kts | 97° |
| 2026-04-30 14:39 | 31.86481 | 130.75677 | 4694 ft | 280 kts | 127° |
| 2026-04-30 14:40 | 31.83986 | 130.79208 | 6001 ft | 279 kts | 136° |
| 2026-04-30 14:40 | 31.82624 | 130.80865 | 6845 ft | 282 kts | 141° |
| 2026-04-30 14:40 | 31.81174 | 130.82400 | 7648 ft | 283 kts | 145° |
| 2026-04-30 14:40 | 31.79632 | 130.83887 | 8453 ft | 286 kts | 147° |
| 2026-04-30 14:41 | 31.78065 | 130.85331 | 9247 ft | 290 kts | 148° |
| 2026-04-30 14:41 | 31.76410 | 130.86669 | 10014 ft | 291 kts | 154° |
| 2026-04-30 14:41 | 31.74639 | 130.87965 | 10450 ft | 308 kts | 155° |
| 2026-04-30 14:41 | 31.72790 | 130.89302 | 10996 ft | 318 kts | 155° |
| 2026-04-30 14:42 | 31.70878 | 130.90684 | 11761 ft | 322 kts | 156° |
| 2026-04-30 14:42 | 31.68972 | 130.92058 | 12542 ft | 325 kts | 157° |
| 2026-04-30 14:42 | 31.67038 | 130.93447 | 13288 ft | 330 kts | 158° |
| 2026-04-30 14:42 | 31.65057 | 130.94880 | 13993 ft | 336 kts | 156° |
| 2026-04-30 14:43 | 31.63320 | 130.96833 | 14610 ft | 364 kts | 134° |
| 2026-04-30 14:43 | 31.62256 | 130.99639 | 15253 ft | 388 kts | 112° |
| 2026-04-30 14:43 | 31.61725 | 131.02744 | 16011 ft | 394 kts | 107° |
| 2026-04-30 14:43 | 31.61431 | 131.05990 | 16676 ft | 405 kts | 99° |
| 2026-04-30 14:44 | 31.61320 | 131.09279 | 17285 ft | 409 kts | 99° |
| 2026-04-30 14:44 | 31.61222 | 131.12659 | 17864 ft | 414 kts | 99° |
| 2026-04-30 14:44 | 31.61136 | 131.16024 | 18435 ft | 417 kts | 99° |
| 2026-04-30 14:44 | 31.61049 | 131.19433 | 18941 ft | 421 kts | 99° |
| 2026-04-30 14:45 | 31.60958 | 131.22883 | 19521 ft | 424 kts | 99° |
| 2026-04-30 14:45 | 31.60868 | 131.26385 | 20104 ft | 427 kts | 99° |
| 2026-04-30 14:45 | 31.60776 | 131.29851 | 20639 ft | 430 kts | 100° |
| 2026-04-30 14:45 | 31.60723 | 131.33349 | 21167 ft | 436 kts | 94° |
| 2026-04-30 14:46 | 31.61348 | 131.36928 | 21586 ft | 454 kts | 75° |
| 2026-04-30 14:46 | 31.62549 | 131.40356 | 22088 ft | 458 kts | 69° |
| 2026-04-30 14:46 | 31.64063 | 131.43689 | 22560 ft | 463 kts | 62° |
| 2026-04-30 14:46 | 31.65136 | 131.45850 | 22754 ft | 467 kts | 63° |
| 2026-04-30 14:47 | 31.67363 | 131.50244 | 23431 ft | 468 kts | 62° |
| 2026-04-30 14:47 | 31.69055 | 131.53565 | 23794 ft | 471 kts | 62° |
| 2026-04-30 14:47 | 31.70738 | 131.56863 | 24128 ft | 474 kts | 61° |
| 2026-04-30 14:47 | 31.72431 | 131.60182 | 24451 ft | 477 kts | 61° |
| 2026-04-30 14:48 | 31.74153 | 131.63560 | 24778 ft | 480 kts | 61° |
| 2026-04-30 14:48 | 31.75865 | 131.66922 | 25090 ft | 483 kts | 61° |
| 2026-04-30 14:48 | 31.77603 | 131.70337 | 25400 ft | 486 kts | 61° |
| 2026-04-30 14:48 | 31.79335 | 131.73744 | 25700 ft | 489 kts | 60° |
| 2026-04-30 14:49 | 31.81075 | 131.77169 | 26012 ft | 492 kts | 60° |
| 2026-04-30 14:49 | 31.82841 | 131.80651 | 26312 ft | 495 kts | 60° |
| 2026-04-30 14:49 | 31.84602 | 131.84126 | 26605 ft | 498 kts | 60° |
| 2026-04-30 14:49 | 31.86391 | 131.87658 | 26896 ft | 501 kts | 60° |
| 2026-04-30 14:50 | 31.89967 | 131.94726 | 27460 ft | 506 kts | 60° |
| 2026-04-30 14:50 | 31.91756 | 131.98269 | 27731 ft | 509 kts | 60° |
| 2026-04-30 14:51 | 31.95396 | 132.05486 | 28267 ft | 514 kts | 60° |
| 2026-04-30 14:51 | 31.97215 | 132.09098 | 28519 ft | 517 kts | 60° |
| 2026-04-30 14:51 | 32.00896 | 132.16417 | 29044 ft | 521 kts | 59° |
| 2026-04-30 14:52 | 32.02756 | 132.20122 | 29300 ft | 523 kts | 59° |
| 2026-04-30 14:52 | 32.05838 | 132.26268 | 29721 ft | 527 kts | 59° |
| 2026-04-30 14:52 | 32.08330 | 132.31245 | 29851 ft | 534 kts | 59° |
| 2026-04-30 14:53 | 32.12264 | 132.38727 | 30303 ft | 536 kts | 53° |
| 2026-04-30 14:53 | 32.13780 | 132.41088 | 30479 ft | 535 kts | 49° |
| 2026-04-30 14:54 | 32.18803 | 132.47525 | 30993 ft | 533 kts | 45° |
| 2026-04-30 14:54 | 32.23886 | 132.53915 | 31501 ft | 533 kts | 45° |
| 2026-04-30 14:55 | 32.28498 | 132.60711 | 31972 ft | 535 kts | 59° |
| 2026-04-30 14:55 | 32.30236 | 132.64611 | 32218 ft | 532 kts | 69° |
| 2026-04-30 14:55 | 32.33259 | 132.74084 | 32829 ft | 530 kts | 72° |
| 2026-04-30 14:56 | 32.35625 | 132.80814 | 33248 ft | 530 kts | 69° |
| 2026-04-30 14:56 | 32.38738 | 132.88669 | 33761 ft | 529 kts | 67° |
| 2026-04-30 14:57 | 32.40403 | 132.92604 | 33971 ft | 530 kts | 63° |
| 2026-04-30 14:57 | 32.44199 | 133.00047 | 34402 ft | 530 kts | 60° |
| 2026-04-30 14:58 | 32.48049 | 133.07450 | 34698 ft | 519 kts | 60° |
| 2026-04-30 14:58 | 32.53779 | 133.18500 | 34806 ft | 533 kts | 60° |
| 2026-04-30 15:00 | 32.63420 | 133.37161 | 34793 ft | 532 kts | 59° |
| 2026-04-30 15:01 | 32.71010 | 133.52233 | 34790 ft | 531 kts | 61° |
| 2026-04-30 15:01 | 32.76637 | 133.63531 | 34787 ft | 530 kts | 61° |
| 2026-04-30 15:02 | 32.80386 | 133.71073 | 34791 ft | 530 kts | 61° |
| 2026-04-30 15:03 | 32.89737 | 133.89949 | 34788 ft | 530 kts | 61° |
| 2026-04-30 15:04 | 32.99036 | 134.08817 | 34810 ft | 528 kts | 61° |
| 2026-04-30 15:06 | 33.09323 | 134.26836 | 34810 ft | 527 kts | 39° |
| 2026-04-30 15:07 | 33.20573 | 134.38087 | 34312 ft | 526 kts | 38° |
| 2026-04-30 15:07 | 33.26047 | 134.43692 | 33593 ft | 518 kts | 38° |
| 2026-04-30 15:08 | 33.31528 | 134.49314 | 32833 ft | 519 kts | 38° |
| 2026-04-30 15:08 | 33.39735 | 134.57749 | 31178 ft | 520 kts | 38° |
| 2026-04-30 15:09 | 33.45173 | 134.63350 | 30287 ft | 513 kts | 38° |
| 2026-04-30 15:09 | 33.50606 | 134.68955 | 29288 ft | 516 kts | 38° |
| 2026-04-30 15:10 | 33.56032 | 134.74562 | 28250 ft | 512 kts | 38° |
| 2026-04-30 15:11 | 33.67455 | 134.83927 | 26258 ft | 489 kts | 28° |
| 2026-04-30 15:11 | 33.73209 | 134.88169 | 25309 ft | 481 kts | 28° |
| 2026-04-30 15:12 | 33.81670 | 134.94416 | 23933 ft | 471 kts | 28° |
| 2026-04-30 15:13 | 33.87223 | 134.98527 | 22453 ft | 465 kts | 28° |
| 2026-04-30 15:14 | 33.98037 | 135.06547 | 19523 ft | 447 kts | 28° |
| 2026-04-30 15:14 | 34.05851 | 135.12358 | 17385 ft | 433 kts | 28° |
| 2026-04-30 15:16 | 34.18298 | 135.21643 | 13922 ft | 406 kts | 29° |
| 2026-04-30 15:17 | 34.27353 | 135.28786 | 11871 ft | 372 kts | 33° |
| 2026-04-30 15:18 | 34.37404 | 135.37018 | 10264 ft | 329 kts | 34° |
| 2026-04-30 15:19 | 34.42809 | 135.42002 | 9117 ft | 321 kts | 49° |